createdAt,value
2023-02-05T00:00:39.477Z,4.53
2023-02-05T00:03:06.029Z,4.20
2023-02-05T00:05:33.081Z,3.35
2023-02-05T00:07:59.741Z,3.63
2023-02-05T00:10:26.304Z,4.53
2023-02-05T00:12:52.825Z,3.83
2023-02-05T00:15:19.377Z,4.38
2023-02-05T00:17:45.900Z,3.80
2023-02-05T00:20:12.546Z,4.45
2023-02-05T00:22:39.128Z,3.80
2023-02-05T00:25:06.088Z,4.05
2023-02-05T00:27:33.594Z,3.40
2023-02-05T00:30:00.127Z,3.13
2023-02-05T00:32:26.612Z,2.58
2023-02-05T00:34:53.146Z,3.05
2023-02-05T00:37:19.666Z,3.10
2023-02-05T00:39:46.178Z,3.13
2023-02-05T00:42:12.726Z,2.60
2023-02-05T00:44:39.214Z,2.35
2023-02-05T00:47:05.754Z,2.92
2023-02-05T00:49:32.241Z,2.60
2023-02-05T00:51:58.754Z,2.60
2023-02-05T00:54:25.268Z,2.63
2023-02-05T00:56:51.770Z,2.17
2023-02-05T00:59:18.327Z,2.38
2023-02-05T01:01:44.865Z,2.67
2023-02-05T01:04:11.411Z,2.50
2023-02-05T01:06:37.980Z,2.00
2023-02-05T01:09:04.551Z,2.25
2023-02-05T01:11:31.119Z,1.60
2023-02-05T01:13:57.869Z,1.92
2023-02-05T01:16:24.404Z,1.80
2023-02-05T01:18:50.996Z,1.50
2023-02-05T01:21:17.509Z,1.88
2023-02-05T01:23:44.111Z,1.70
2023-02-05T01:26:10.619Z,1.85
2023-02-05T01:28:37.120Z,2.25
2023-02-05T01:31:03.948Z,1.98
2023-02-05T01:33:30.501Z,2.13
2023-02-05T01:35:56.981Z,2.30
2023-02-05T01:38:23.490Z,2.17
2023-02-05T01:40:50.131Z,2.10
2023-02-05T01:43:18.459Z,1.70
2023-02-05T01:46:25.966Z,1.30
2023-02-05T01:48:57.800Z,1.70
2023-02-05T01:51:26.271Z,1.63
2023-02-05T01:53:52.981Z,1.42
2023-02-05T01:56:28.723Z,1.00
2023-02-05T01:59:03.595Z,1.30
2023-02-05T02:01:32.183Z,1.20
2023-02-05T02:04:04.592Z,1.55
2023-02-05T02:06:33.695Z,1.90
2023-02-05T02:09:00.738Z,1.15
2023-02-05T02:11:30.347Z,1.70
2023-02-05T02:13:59.692Z,1.17
2023-02-05T02:16:28.758Z,1.67
2023-02-05T02:18:55.359Z,1.85
2023-02-05T02:21:24.739Z,2.08
2023-02-05T02:24:22.990Z,1.42
2023-02-05T02:27:21.576Z,1.58
2023-02-05T02:29:55.183Z,1.35
2023-02-05T02:32:50.996Z,1.75
2023-02-05T02:35:36.653Z,1.80
2023-02-05T02:38:08.959Z,2.63
2023-02-05T02:40:52.205Z,2.17
2023-02-05T02:43:30.433Z,2.00
2023-02-05T02:46:03.192Z,2.80
2023-02-05T02:48:33.478Z,2.63
2023-02-05T02:51:01.819Z,2.58
2023-02-05T02:53:33.468Z,2.88
2023-02-05T02:56:02.380Z,3.70
2023-02-05T02:58:35.623Z,3.28
2023-02-05T03:01:06.691Z,3.10
2023-02-05T03:03:38.098Z,3.67
2023-02-05T03:06:07.939Z,3.85
2023-02-05T03:08:55.008Z,3.42
2023-02-05T03:11:26.249Z,3.50
2023-02-05T03:13:54.660Z,4.55
2023-02-05T03:16:24.607Z,3.38
2023-02-05T03:18:51.520Z,3.45
2023-02-05T03:21:24.700Z,3.58
2023-02-05T03:23:51.235Z,3.42
2023-02-05T03:26:28.223Z,3.40
2023-02-05T03:28:57.237Z,3.78
2023-02-05T03:31:33.835Z,3.42
2023-02-05T03:34:21.813Z,4.28
2023-02-05T03:37:19.354Z,3.83
2023-02-05T03:40:25.239Z,4.80
2023-02-05T03:43:40.050Z,3.92
2023-02-05T03:46:17.469Z,3.58
2023-02-05T03:48:49.281Z,5.00
2023-02-05T03:51:39.953Z,4.45
2023-02-05T03:54:13.023Z,3.58
2023-02-05T03:56:48.893Z,4.80
2023-02-05T03:59:17.983Z,4.45
2023-02-05T04:01:45.973Z,4.18
2023-02-05T04:04:13.382Z,4.68
2023-02-05T04:06:40.140Z,4.55
2023-02-05T04:09:07.256Z,4.85
2023-02-05T04:11:33.774Z,4.80
2023-02-05T04:14:00.282Z,4.70
2023-02-05T04:16:26.932Z,4.90
2023-02-05T04:18:53.674Z,5.18
2023-02-05T04:21:20.296Z,5.00
2023-02-05T04:23:46.926Z,5.05
2023-02-05T04:26:13.456Z,5.82
2023-02-05T04:28:39.996Z,6.07
2023-02-05T04:31:08.649Z,5.32
2023-02-05T04:33:35.273Z,5.88
2023-02-05T04:36:04.747Z,6.00
2023-02-05T04:38:31.313Z,5.10
2023-02-05T04:40:58.021Z,5.68
2023-02-05T04:43:24.562Z,4.65
2023-02-05T04:45:51.379Z,4.28
2023-02-05T04:48:18.423Z,3.70
2023-02-05T04:50:45.292Z,3.35
2023-02-05T04:53:11.802Z,2.15
2023-02-05T04:55:38.445Z,3.40
2023-02-05T04:58:04.980Z,2.25
2023-02-05T05:00:31.754Z,2.38
2023-02-05T05:02:58.459Z,1.83
2023-02-05T05:05:24.981Z,1.65
2023-02-05T05:07:51.682Z,1.95
2023-02-05T05:10:18.238Z,1.90
2023-02-05T05:12:44.827Z,1.13
2023-02-05T05:15:11.390Z,1.80
2023-02-05T05:17:38.098Z,1.90
2023-02-05T05:20:04.980Z,1.10
2023-02-05T05:22:32.583Z,1.73
2023-02-05T05:24:59.244Z,1.27
2023-02-05T05:27:25.789Z,1.52
2023-02-05T05:29:52.293Z,1.70
2023-02-05T05:32:18.921Z,2.15
2023-02-05T05:34:45.563Z,1.65
2023-02-05T05:37:12.092Z,1.98
2023-02-05T05:39:56.908Z,1.35
2023-02-05T05:42:41.988Z,2.20
2023-02-05T05:45:08.817Z,1.00
2023-02-05T05:47:35.374Z,1.27
2023-02-05T05:50:02.357Z,1.98
2023-02-05T05:52:31.470Z,2.00
2023-02-05T05:54:58.879Z,1.50
2023-02-05T05:57:25.993Z,1.67
2023-02-05T05:59:52.542Z,2.20
2023-02-05T06:02:19.282Z,1.65
2023-02-05T06:04:46.135Z,1.35
2023-02-05T06:07:12.824Z,2.00
2023-02-05T06:09:39.364Z,1.77
2023-02-05T06:12:06.144Z,1.67
2023-02-05T06:14:32.934Z,1.30
2023-02-05T06:16:59.537Z,1.58
2023-02-05T06:19:26.073Z,1.83
2023-02-05T06:21:52.640Z,0.88
2023-02-05T06:24:19.368Z,1.48
2023-02-05T06:26:45.897Z,2.38
2023-02-05T06:29:12.422Z,1.25
2023-02-05T06:31:39.049Z,1.45
2023-02-05T06:34:05.694Z,1.40
2023-02-05T06:36:32.250Z,1.52
2023-02-05T06:38:58.957Z,1.25
2023-02-05T06:41:25.495Z,1.45
2023-02-05T06:43:52.100Z,1.50
2023-02-05T06:46:18.628Z,1.17
2023-02-05T06:48:45.098Z,1.85
2023-02-05T06:51:13.441Z,1.08
2023-02-05T06:53:40.055Z,1.38
2023-02-05T06:56:06.894Z,1.40
2023-02-05T06:58:33.432Z,1.75
2023-02-05T07:00:59.976Z,2.03
2023-02-05T07:03:26.514Z,1.35
2023-02-05T07:05:53.057Z,1.38
2023-02-05T07:08:19.576Z,1.80
2023-02-05T07:10:46.219Z,2.78
2023-02-05T07:13:12.910Z,1.88
2023-02-05T07:15:39.481Z,1.50
2023-02-05T07:18:06.668Z,1.02
2023-02-05T07:20:33.316Z,1.38
2023-02-05T07:23:00.419Z,1.60
2023-02-05T07:25:26.980Z,2.35
2023-02-05T07:27:53.715Z,1.88
2023-02-05T07:30:20.385Z,2.53
2023-02-05T07:32:46.881Z,1.45
2023-02-05T07:35:13.508Z,1.70
2023-02-05T07:37:40.007Z,2.00
2023-02-05T07:40:07.194Z,1.75
2023-02-05T07:42:35.098Z,1.90
2023-02-05T07:45:01.741Z,1.42
2023-02-05T07:47:28.372Z,1.63
2023-02-05T07:49:55.117Z,3.20
2023-02-05T07:52:21.784Z,1.67
2023-02-05T07:54:49.162Z,1.70
2023-02-05T07:57:15.704Z,1.90
2023-02-05T07:59:42.271Z,1.77
2023-02-05T08:02:11.095Z,1.67
2023-02-05T08:04:38.071Z,1.92
2023-02-05T08:07:04.826Z,2.28
2023-02-05T08:09:31.570Z,2.25
2023-02-05T08:11:58.082Z,2.03
2023-02-05T08:14:24.612Z,2.70
2023-02-05T08:16:51.826Z,2.38
2023-02-05T08:19:18.615Z,2.08
2023-02-05T08:21:45.663Z,1.73
2023-02-05T08:24:12.363Z,2.15
2023-02-05T08:26:39.999Z,3.10
2023-02-05T08:29:08.368Z,3.17
2023-02-05T08:31:35.664Z,2.28
2023-02-05T08:34:03.234Z,2.25
2023-02-05T08:36:30.674Z,2.35
2023-02-05T08:38:57.228Z,2.80
2023-02-05T08:41:23.857Z,2.00
2023-02-05T08:43:51.441Z,2.75
2023-02-05T08:46:21.831Z,2.20
2023-02-05T08:48:48.717Z,1.98
2023-02-05T08:51:16.455Z,2.22
2023-02-05T08:53:43.006Z,2.00
2023-02-05T08:56:14.050Z,3.83
2023-02-05T08:58:40.951Z,1.67
2023-02-05T09:01:13.857Z,2.30
2023-02-05T09:03:41.295Z,1.80
2023-02-05T09:06:11.558Z,2.78
2023-02-05T09:08:38.563Z,2.15
2023-02-05T09:11:06.633Z,2.17
2023-02-05T09:13:33.613Z,2.47
2023-02-05T09:16:00.170Z,2.40
2023-02-05T09:18:26.759Z,2.97
2023-02-05T09:20:54.612Z,2.13
2023-02-05T09:23:21.419Z,2.15
2023-02-05T09:25:48.595Z,2.65
2023-02-05T09:28:15.976Z,3.53
2023-02-05T09:30:45.617Z,2.60
2023-02-05T09:33:13.354Z,2.78
2023-02-05T09:35:40.075Z,2.65
2023-02-05T09:38:06.876Z,2.65
2023-02-05T09:40:39.662Z,2.22
2023-02-05T09:43:42.650Z,1.75
2023-02-05T09:46:15.053Z,2.72
2023-02-05T09:49:09.544Z,2.55
2023-02-05T09:51:44.034Z,2.30
2023-02-05T09:54:19.072Z,2.47
2023-02-05T09:56:48.452Z,3.10
2023-02-05T09:59:22.073Z,3.95
2023-02-05T10:01:55.200Z,2.58
2023-02-05T10:04:22.098Z,2.15
2023-02-05T10:06:57.591Z,2.33
2023-02-05T10:10:16.081Z,2.17
2023-02-05T10:12:58.252Z,2.78
2023-02-05T10:15:38.480Z,2.88
2023-02-05T10:18:19.785Z,1.67
2023-02-05T10:20:58.627Z,2.83
2023-02-05T10:24:03.523Z,2.92
2023-02-05T10:26:49.659Z,2.70
2023-02-05T10:29:22.044Z,2.60
2023-02-05T10:32:34.567Z,2.50
2023-02-05T10:35:38.092Z,2.42
2023-02-05T10:38:15.965Z,2.08
2023-02-05T10:40:46.654Z,2.50
2023-02-05T10:43:27.475Z,2.60
2023-02-05T10:45:56.731Z,2.33
2023-02-05T10:48:51.515Z,2.63
2023-02-05T10:51:28.132Z,2.40
2023-02-05T10:53:54.731Z,2.15
2023-02-05T10:56:21.980Z,2.00
2023-02-05T10:59:02.662Z,2.20
2023-02-05T11:01:36.100Z,2.45
2023-02-05T11:04:14.962Z,2.40
2023-02-05T11:06:45.684Z,2.58
2023-02-05T11:09:24.519Z,2.13
2023-02-05T11:11:56.432Z,2.73
2023-02-05T11:14:31.684Z,2.05
2023-02-05T11:16:58.729Z,2.60
2023-02-05T11:19:29.100Z,2.50
2023-02-05T11:22:03.542Z,2.70
2023-02-05T11:24:32.078Z,2.47
2023-02-05T11:27:27.727Z,2.78
2023-02-05T11:29:56.704Z,2.50
2023-02-05T11:32:36.749Z,2.75
2023-02-05T11:35:29.567Z,3.00
2023-02-05T11:38:27.406Z,2.23
2023-02-05T11:40:54.564Z,2.60
2023-02-05T11:43:33.561Z,2.58
2023-02-05T11:46:03.685Z,2.65
2023-02-05T11:48:39.070Z,2.35
2023-02-05T11:51:09.483Z,2.30
2023-02-05T11:53:37.654Z,2.85
2023-02-05T11:56:11.139Z,2.00
2023-02-05T11:58:38.764Z,4.47
2023-02-05T12:01:29.151Z,2.20
2023-02-05T12:04:04.625Z,2.77
2023-02-05T12:06:37.579Z,2.78
2023-02-05T12:09:04.640Z,3.20
2023-02-05T12:11:55.407Z,2.00
2023-02-05T12:14:49.474Z,3.05
2023-02-05T12:17:33.044Z,2.47
2023-02-05T12:20:12.255Z,2.35
2023-02-05T12:23:30.048Z,2.30
2023-02-05T12:26:08.722Z,1.98
2023-02-05T12:28:44.103Z,2.13
2023-02-05T12:31:22.429Z,2.80
2023-02-05T12:34:16.424Z,2.92
2023-02-05T12:37:06.080Z,2.03
2023-02-05T12:39:38.036Z,2.47
2023-02-05T12:42:07.680Z,2.55
2023-02-05T12:44:44.278Z,1.87
2023-02-05T12:47:22.160Z,3.35
2023-02-05T12:50:12.261Z,2.20
2023-02-05T12:52:59.308Z,2.60
2023-02-05T12:55:46.480Z,3.40
2023-02-05T12:58:17.189Z,2.90
2023-02-05T13:00:54.613Z,1.88
2023-02-05T13:03:39.427Z,1.95
2023-02-05T13:06:13.053Z,2.33
2023-02-05T13:09:14.371Z,3.00
2023-02-05T13:11:46.425Z,2.45
2023-02-05T13:14:20.064Z,2.28
2023-02-05T13:17:11.434Z,2.35
2023-02-05T13:19:46.232Z,2.63
2023-02-05T13:22:54.313Z,2.55
2023-02-05T13:26:02.565Z,2.40
2023-02-05T13:28:48.104Z,1.73
2023-02-05T13:31:38.363Z,2.47
2023-02-05T13:34:08.232Z,2.37
2023-02-05T13:36:53.454Z,2.20
2023-02-05T13:39:41.141Z,1.75
2023-02-05T13:42:26.167Z,2.15
2023-02-05T13:45:17.690Z,2.45
2023-02-05T13:48:08.963Z,2.20
2023-02-05T13:51:18.933Z,1.70
2023-02-05T13:54:03.721Z,1.70
2023-02-05T13:56:36.094Z,2.03
2023-02-05T13:59:05.951Z,2.40
2023-02-05T14:01:42.622Z,1.80
2023-02-05T14:04:28.437Z,3.35
2023-02-05T14:07:19.475Z,2.30
2023-02-05T14:09:56.476Z,1.92
2023-02-05T14:12:27.248Z,1.80
2023-02-05T14:15:23.984Z,2.80
2023-02-05T14:17:50.443Z,3.05
2023-02-05T14:20:26.229Z,2.50
2023-02-05T14:23:01.064Z,2.00
2023-02-05T14:25:39.601Z,2.90
2023-02-05T14:28:09.002Z,2.90
2023-02-05T14:30:48.118Z,1.70
2023-02-05T14:33:38.085Z,2.58
2023-02-05T14:36:24.270Z,2.40
2023-02-05T14:38:50.775Z,2.40
2023-02-05T14:41:24.721Z,2.33
2023-02-05T14:44:02.008Z,2.97
2023-02-05T14:46:33.159Z,2.13
2023-02-05T14:49:02.860Z,3.03
2023-02-05T14:51:38.457Z,1.98
2023-02-05T14:54:14.528Z,2.00
2023-02-05T14:56:46.788Z,2.10
2023-02-05T14:59:38.736Z,2.28
2023-02-05T15:02:44.000Z,2.10
2023-02-05T15:05:19.519Z,1.80
2023-02-05T15:07:48.766Z,2.90
2023-02-05T15:10:22.987Z,2.33
2023-02-05T15:13:07.961Z,2.60
2023-02-05T15:15:38.188Z,2.30
2023-02-05T15:18:20.566Z,2.90
2023-02-05T15:20:51.649Z,2.07
2023-02-05T15:23:37.554Z,2.00
2023-02-05T15:26:25.844Z,2.67
2023-02-05T15:29:04.476Z,2.58
2023-02-05T15:31:37.128Z,2.05
2023-02-05T15:34:06.762Z,2.33
2023-02-05T15:36:49.877Z,2.72
2023-02-05T15:39:25.334Z,1.88
2023-02-05T15:41:55.756Z,2.75
2023-02-05T15:44:27.181Z,2.17
2023-02-05T15:46:54.736Z,2.37
2023-02-05T15:49:29.896Z,2.50
2023-02-05T15:51:57.091Z,2.75
2023-02-05T15:54:24.899Z,2.80
2023-02-05T15:56:53.916Z,2.33
2023-02-05T15:59:25.588Z,2.20
2023-02-05T16:02:21.930Z,2.55
2023-02-05T16:05:01.994Z,1.98
2023-02-05T16:07:40.191Z,2.70
2023-02-05T16:10:18.315Z,2.40
2023-02-05T16:13:07.937Z,2.73
2023-02-05T16:15:41.502Z,2.17
2023-02-05T16:18:17.028Z,2.60
2023-02-05T16:20:50.658Z,2.38
2023-02-05T16:23:32.293Z,2.33
2023-02-05T16:26:07.049Z,2.77
2023-02-05T16:28:45.468Z,2.35
2023-02-05T16:31:21.774Z,2.30
2023-02-05T16:33:51.434Z,2.40
2023-02-05T16:36:22.882Z,2.35
2023-02-05T16:38:58.427Z,2.47
2023-02-05T16:41:29.066Z,2.65
2023-02-05T16:43:58.178Z,2.85
2023-02-05T16:46:31.432Z,3.33
2023-02-05T16:49:00.743Z,2.65
2023-02-05T16:51:45.506Z,3.17
2023-02-05T16:54:11.996Z,4.13
2023-02-05T16:57:07.947Z,2.72
2023-02-05T16:59:53.601Z,1.85
2023-02-05T17:02:29.345Z,2.35
2023-02-05T17:04:57.803Z,2.40
2023-02-05T17:07:24.585Z,2.92
2023-02-05T17:09:51.575Z,2.50
2023-02-05T17:12:33.337Z,2.90
2023-02-05T17:15:02.551Z,2.22
2023-02-05T17:17:31.001Z,2.60
2023-02-05T17:20:17.879Z,1.40
2023-02-05T17:23:05.561Z,3.05
2023-02-05T17:25:34.853Z,2.33
2023-02-05T17:28:03.049Z,3.28
2023-02-05T17:30:30.270Z,2.67
2023-02-05T17:32:56.793Z,2.38
2023-02-05T17:35:25.834Z,2.65
2023-02-05T17:37:53.306Z,2.88
2023-02-05T17:40:20.557Z,2.15
2023-02-05T17:42:48.150Z,2.03
2023-02-05T17:45:22.928Z,2.50
2023-02-05T17:47:50.068Z,1.95
2023-02-05T17:50:17.223Z,2.72
2023-02-05T17:52:44.600Z,3.03
2023-02-05T17:55:17.243Z,2.63
2023-02-05T17:57:44.686Z,2.35
2023-02-05T18:00:14.295Z,2.50
2023-02-05T18:02:40.871Z,2.92
2023-02-05T18:05:07.851Z,2.60
2023-02-05T18:07:46.176Z,2.33
2023-02-05T18:10:15.571Z,2.70
2023-02-05T18:12:42.362Z,2.92
2023-02-05T18:15:09.803Z,2.40
2023-02-05T18:17:36.414Z,2.03
2023-02-05T18:20:04.307Z,1.98
2023-02-05T18:22:31.521Z,2.17
2023-02-05T18:24:58.179Z,2.00
2023-02-05T18:27:25.985Z,2.58
2023-02-05T18:29:53.275Z,2.70
2023-02-05T18:32:19.858Z,1.95
2023-02-05T18:34:46.375Z,2.17
2023-02-05T18:37:15.078Z,1.90
2023-02-05T18:39:41.610Z,3.70
2023-02-05T18:42:08.174Z,2.75
2023-02-05T18:44:34.864Z,2.70
2023-02-05T18:47:02.612Z,2.80
2023-02-05T18:49:29.256Z,2.67
2023-02-05T18:51:55.825Z,1.95
2023-02-05T18:54:22.382Z,2.33
2023-02-05T18:56:49.036Z,2.95
2023-02-05T18:59:18.181Z,2.47
2023-02-05T19:01:44.915Z,2.08
2023-02-05T19:04:13.896Z,2.90
2023-02-05T19:06:42.308Z,2.40
2023-02-05T19:09:08.950Z,2.78
2023-02-05T19:11:40.830Z,2.63
2023-02-05T19:14:11.213Z,2.88
2023-02-05T19:16:38.881Z,3.38
2023-02-05T19:19:05.796Z,2.93
2023-02-05T19:21:33.102Z,2.38
2023-02-05T19:24:05.676Z,1.77
2023-02-05T19:26:34.180Z,2.33
2023-02-05T19:29:04.769Z,2.85
2023-02-05T19:31:35.172Z,2.30
2023-02-05T19:34:01.942Z,2.47
2023-02-05T19:36:29.239Z,2.80
2023-02-05T19:38:56.467Z,2.22
2023-02-05T19:41:26.380Z,2.72
2023-02-05T19:43:57.768Z,2.17
2023-02-05T19:46:29.475Z,2.05
2023-02-05T19:48:56.688Z,2.47
2023-02-05T19:51:23.429Z,2.30
2023-02-05T19:53:49.993Z,2.65
2023-02-05T19:56:21.747Z,2.57
2023-02-05T19:58:50.687Z,3.17
2023-02-05T20:01:29.433Z,1.90
2023-02-05T20:04:09.138Z,2.70
2023-02-05T20:06:36.550Z,2.80
2023-02-05T20:09:10.149Z,2.30
2023-02-05T20:11:41.918Z,2.05
2023-02-05T20:14:09.799Z,1.98
2023-02-05T20:16:37.506Z,1.98
2023-02-05T20:19:04.095Z,2.03
2023-02-05T20:21:31.078Z,2.00
2023-02-05T20:23:57.781Z,2.67
2023-02-05T20:26:25.226Z,1.98
2023-02-05T20:29:13.075Z,2.60
2023-02-05T20:31:43.439Z,2.35
2023-02-05T20:34:18.520Z,2.57
2023-02-05T20:36:47.238Z,2.03
2023-02-05T20:39:14.479Z,2.47
2023-02-05T20:41:40.972Z,2.05
2023-02-05T20:44:07.644Z,2.55
2023-02-05T20:46:34.294Z,3.03
2023-02-05T20:49:01.062Z,2.72
2023-02-05T20:51:27.737Z,3.40
2023-02-05T20:53:58.772Z,2.05
2023-02-05T20:56:27.304Z,2.83
2023-02-05T20:58:54.583Z,2.10
2023-02-05T21:01:23.612Z,2.88
2023-02-05T21:03:53.819Z,2.15
2023-02-05T21:06:22.236Z,2.42
2023-02-05T21:08:50.444Z,3.03
2023-02-05T21:11:17.974Z,2.77
2023-02-05T21:13:46.125Z,2.08
2023-02-05T21:16:14.010Z,2.85
2023-02-05T21:18:44.015Z,2.50
2023-02-05T21:21:14.145Z,1.95
2023-02-05T21:23:41.608Z,2.13
2023-02-05T21:26:08.634Z,2.40
2023-02-05T21:28:35.133Z,2.30
2023-02-05T21:31:08.585Z,2.45
2023-02-05T21:33:35.997Z,2.17
2023-02-05T21:36:04.893Z,2.40
2023-02-05T21:38:34.868Z,1.83
2023-02-05T21:41:13.572Z,2.15
2023-02-05T21:43:40.803Z,2.20
2023-02-05T21:46:12.119Z,2.92
2023-02-05T21:48:39.671Z,2.20
2023-02-05T21:51:11.545Z,2.25
2023-02-05T21:53:38.659Z,2.50
2023-02-05T21:56:07.670Z,2.35
2023-02-05T21:58:35.773Z,1.58
2023-02-05T22:01:41.412Z,1.97
2023-02-05T22:04:12.321Z,2.05
2023-02-05T22:06:39.746Z,2.35
2023-02-05T22:09:08.489Z,2.60
2023-02-05T22:11:35.960Z,2.20
2023-02-05T22:14:02.489Z,2.30
2023-02-05T22:16:32.436Z,1.63
2023-02-05T22:19:00.940Z,2.53
2023-02-05T22:21:30.394Z,2.25
2023-02-05T22:23:59.699Z,2.28
2023-02-05T22:26:29.265Z,2.57
2023-02-05T22:28:57.391Z,2.65
2023-02-05T22:31:23.961Z,2.75
2023-02-05T22:33:51.546Z,1.58
2023-02-05T22:36:23.236Z,2.30
2023-02-05T22:38:50.968Z,1.90
2023-02-05T22:41:20.717Z,1.90
2023-02-05T22:43:47.341Z,1.80
2023-02-05T22:46:18.470Z,3.30
2023-02-05T22:48:46.943Z,3.30
2023-02-05T22:51:17.101Z,2.90
2023-02-05T22:53:43.636Z,2.58
2023-02-05T22:56:13.021Z,2.45
2023-02-05T22:58:41.726Z,2.80
2023-02-05T23:01:21.464Z,2.88
2023-02-05T23:03:52.078Z,1.60
2023-02-05T23:06:28.978Z,2.25
2023-02-05T23:09:03.208Z,1.98
2023-02-05T23:11:31.496Z,2.90
2023-02-05T23:14:00.078Z,2.20
2023-02-05T23:16:36.239Z,2.63
2023-02-05T23:19:06.880Z,2.22
2023-02-05T23:21:35.163Z,2.58
2023-02-05T23:24:02.179Z,1.92
2023-02-05T23:26:35.289Z,2.25
2023-02-05T23:29:01.853Z,2.00
2023-02-05T23:31:28.695Z,1.75
2023-02-05T23:33:55.426Z,2.03
2023-02-05T23:36:22.497Z,2.25
2023-02-05T23:38:49.714Z,3.30
2023-02-05T23:41:35.416Z,2.23
2023-02-05T23:44:03.236Z,2.42
2023-02-05T23:46:29.819Z,1.83
2023-02-05T23:48:56.432Z,2.20
2023-02-05T23:51:23.004Z,1.92
2023-02-05T23:53:49.544Z,2.23
2023-02-05T23:56:16.085Z,1.65
2023-02-05T23:58:42.647Z,1.90
